Time;durP1;ratioP1;P1;durP2;ratioP2;P2;SDS_P1;SDS_P2;PMS_P1;PMS_P2;Temp;Humidity;BMP_temperature;BMP_pressure;BME280_temperature;BME280_humidity;BME280_pressure;Samples;Min_cycle;Max_cycle;Signal;HPM_P1;HPM_P2
2024/01/15 00:01:33;;;;;;;;;;;;;;;;;;2072222;28;19921;-81
2024/01/15 00:04:58;;;;;;;;;;;;;;;;;;2073036;28;19976;-85
2024/01/15 00:06:34;;;;;;;;;;;;;;;;;;;;;
2024/01/15 00:08:35;;;;;;;;;;;;;;;;;;2076540;28;19921;-84
2024/01/15 00:23:47;;;;;;;;;;;;;;;;;;2056656;28;19915;-85
2024/01/15 00:27:00;;;;;;;;;;;;;;;;;;;;;
2024/01/15 00:30:18;;;;;;;;;;;;;;;;;;2033201;29;19919;-84
2024/01/15 00:31:58;;;;;;;;;;;;;;;;;;;;;
2024/01/15 00:33:35;;;;;;;;;;;;;;;;;;;;;
2024/01/15 00:36:52;;;;;;;;;;;;;;;;;;2057680;28;19910;-80
2024/01/15 00:41:55;;;;;;;;;;;;;;;;;;2072198;28;19997;-81
2024/01/15 00:43:24;;;;;;;;;;;;;;;;;;2064282;28;19913;-85
2024/01/15 00:48:28;;;;;;;;;;;;;;;;;;2084485;28;19920;-85
2024/01/15 00:51:40;;;;;;;;;;;;;;;;;;2077364;28;19921;-83
2024/01/15 00:54:46;;;;;;;;;;;;;;;;;;2083778;28;19917;-83
2024/01/15 00:56:32;;;;;;;;;;;;;;;;;;2078895;28;19921;-85
2024/01/15 00:58:11;;;;;;;;;;;;;;;;;;2083424;28;19917;-83
2024/01/15 00:59:42;;;;;;;;;;;;;;;;;;;;;
2024/01/15 01:06:27;;;;;;;;;;;;;;;;;;2070074;28;20440;-81
2024/01/15 01:09:43;;;;;;;;;;;;;;;;;;2069762;28;20341;-82
2024/01/15 01:11:14;;;;;;;;;;;;;;;;;;;;;
2024/01/15 01:13:10;;;;;;;;;;;;;;;;;;2063552;28;19910;-86
2024/01/15 01:16:38;;;;;;;;;;;;;;;;;;;;;
2024/01/15 01:18:09;;;;;;;;;;;;;;;;;;2075254;28;19921;-82
2024/01/15 01:24:57;;;;;;;;;;;;;;;;;;2081117;28;19916;-80
2024/01/15 01:29:45;;;;;;;;;;;;;;;;;;2059517;28;19907;-82
2024/01/15 01:32:53;;;;;;;;;;;;;;;;;;2041933;28;20339;-81
2024/01/15 01:34:19;;;;;;;;;;;;;;;;;;2048291;29;19924;-81
2024/01/15 01:35:44;;;;;;;;;;;;;;;;;;2065805;28;19914;-82
2024/01/15 01:37:27;;;;;;;;;;;;;;;;;;;;;
2024/01/15 01:38:57;;;;;;;;;;;;;;;;;;2066047;28;20302;-80
2024/01/15 01:40:23;;;;;;;;;;;;;;;;;;2044763;28;20306;-81
2024/01/15 01:43:34;;;;;;;;;;;;;;;;;;2062494;28;20374;-82
2024/01/15 01:45:10;;;;;;;;;;;;;;;;;;2065900;28;19910;-81
2024/01/15 01:48:38;;;;;;;;;;;;;;;;;;2069094;28;20341;-80
2024/01/15 01:49:59;;;;;;;;;;;;;;;;;;2069503;28;19917;-81
2024/01/15 01:51:30;;;;;;;;;;;;;;;;;;2064832;28;19925;-83
2024/01/15 01:52:59;;;;;;;;;;;;;;;;;;2059741;28;19929;-86
2024/01/15 01:54:29;;;;;;;;;;;;;;;;;;2059375;28;19918;-82
2024/01/15 01:55:52;;;;;;;;;;;;;;;;;;2101368;28;19997;-81
2024/01/15 01:57:19;;;;;;;;;;;;;;;;;;2091783;28;19917;-79
2024/01/15 01:58:39;;;;;;;;;;;;;;;;;;2086246;28;19920;-78
2024/01/15 02:00:17;;;;;;;;;;;;;;;;;;2089172;28;19917;-79
2024/01/15 02:02:00;;;;;;;;;;;;;;;;;;2095939;28;20335;-82
2024/01/15 02:03:31;;;;;;;;;;;;;;;;;;2092786;28;19920;-83
2024/01/15 02:05:05;;;;;;;;;;;;;;;;;;;;;
2024/01/15 02:06:36;;;;;;;;;;;;;;;;;;;;;
2024/01/15 02:08:03;;;;;;;;;;;;;;;;;;2102827;28;19916;-82
2024/01/15 02:09:32;;;;;;;;;;;;;;;;;;2098224;28;19981;-81
2024/01/15 02:11:06;;;;;;;;;;;;;;;;;;;;;
2024/01/15 02:12:33;;;;;;;;;;;;;;;;;;2100218;28;19913;-80
2024/01/15 02:14:00;;;;;;;;;;;;;;;;;;2094660;28;20356;-84
2024/01/15 02:15:23;;;;;;;;;;;;;;;;;;2086036;28;19975;-84
2024/01/15 02:16:47;;;;;;;;;;;;;;;;;;2091860;28;19954;-83
2024/01/15 02:18:13;;;;;;;;;;;;;;;;;;2090944;28;19913;-80
2024/01/15 02:19:44;;;;;;;;;;;;;;;;;;2088716;28;20465;-85
2024/01/15 02:21:10;;;;;;;;;;;;;;;;;;2081203;28;20277;-84
2024/01/15 02:22:34;;;;;;;;;;;;;;;;;;2095375;28;19920;-86
2024/01/15 02:24:00;;;;;;;;;;;;;;;;;;2091530;28;20688;-84
2024/01/15 02:25:34;;;;;;;;;;;;;;;;;;2091643;28;19946;-81
2024/01/15 02:26:55;;;;;;;;;;;;;;;;;;2090084;28;19923;-85
2024/01/15 02:28:19;;;;;;;;;;;;;;;;;;2086640;28;19920;-85
2024/01/15 02:29:45;;;;;;;;;;;;;;;;;;2097066;28;19974;-85
2024/01/15 02:31:06;;;;;;;;;;;;;;;;;;2086026;28;19965;-78
2024/01/15 02:32:29;;;;;;;;;;;;;;;;;;2099549;28;19969;-79
2024/01/15 02:35:37;;;;;;;;;;;;;;;;;;2098205;28;19973;-80
2024/01/15 02:37:03;;;;;;;;;;;;;;;;;;2086357;28;19948;-85
2024/01/15 02:38:36;;;;;;;;;;;;;;;;;;2086956;28;19913;-85
2024/01/15 02:40:02;;;;;;;;;;;;;;;;;;2092404;28;20372;-84
2024/01/15 02:41:28;;;;;;;;;;;;;;;;;;2083182;28;19989;-84
2024/01/15 02:42:51;;;;;;;;;;;;;;;;;;2091162;28;19916;-81
2024/01/15 02:44:17;;;;;;;;;;;;;;;;;;2098420;28;19912;-81
2024/01/15 02:45:38;;;;;;;;;;;;;;;;;;2089911;28;19913;-79
2024/01/15 02:46:58;;;;;;;;;;;;;;;;;;2087339;28;19960;-79
2024/01/15 02:48:19;;;;;;;;;;;;;;;;;;2099881;28;19935;-81
2024/01/15 02:49:40;;;;;;;;;;;;;;;;;;2081476;28;19913;-80
2024/01/15 02:51:01;;;;;;;;;;;;;;;;;;2082145;28;19984;-84
2024/01/15 02:52:21;;;;;;;;;;;;;;;;;;2093827;28;19930;-83
2024/01/15 02:53:42;;;;;;;;;;;;;;;;;;2097144;28;19908;-84
2024/01/15 02:55:03;;;;;;;;;;;;;;;;;;2083432;28;19931;-85
2024/01/15 02:56:26;;;;;;;;;;;;;;;;;;2091615;28;19897;-84
2024/01/15 02:57:56;;;;;;;;;;;;;;;;;;2091660;28;19916;-85
2024/01/15 02:59:22;;;;;;;;;;;;;;;;;;2093828;28;19958;-86
2024/01/15 03:00:43;;;;;;;;;;;;;;;;;;2088731;28;19916;-84
2024/01/15 03:02:07;;;;;;;;;;;;;;;;;;2088735;28;20193;-84
2024/01/15 03:03:28;;;;;;;;;;;;;;;;;;2091696;28;19913;-84
2024/01/15 03:04:49;;;;;;;;;;;;;;;;;;2089143;28;19921;-83
2024/01/15 03:06:09;;;;;;;;;;;;;;;;;;2085787;28;19913;-84
2024/01/15 03:07:30;;;;;;;;;;;;;;;;;;2096481;28;19912;-84
2024/01/15 03:08:51;;;;;;;;;;;;;;;;;;2090876;28;19917;-82
2024/01/15 03:10:12;;;;;;;;;;;;;;;;;;2092029;28;19912;-83
2024/01/15 03:11:33;;;;;;;;;;;;;;;;;;2088881;28;19924;-81
2024/01/15 03:12:55;;;;;;;;;;;;;;;;;;2093389;28;19916;-81
2024/01/15 03:14:16;;;;;;;;;;;;;;;;;;2092256;28;19958;-81
2024/01/15 03:15:37;;;;;;;;;;;;;;;;;;2091167;28;20344;-80
2024/01/15 03:17:05;;;;;;;;;;;;;;;;;;2094033;28;19965;-81
2024/01/15 03:18:26;;;;;;;;;;;;;;;;;;2094715;28;19912;-83
2024/01/15 03:19:47;;;;;;;;;;;;;;;;;;2084560;28;19913;-81
2024/01/15 03:21:08;;;;;;;;;;;;;;;;;;2071534;28;19961;-81
2024/01/15 03:22:28;;;;;;;;;;;;;;;;;;2090440;28;19924;-86
2024/01/15 03:23:49;;;;;;;;;;;;;;;;;;2098746;28;19916;-87
2024/01/15 03:25:10;;;;;;;;;;;;;;;;;;2091336;28;19921;-85
2024/01/15 03:26:33;;;;;;;;;;;;;;;;;;2090513;28;19978;-85
2024/01/15 03:27:54;;;;;;;;;;;;;;;;;;2093029;28;20056;-85
2024/01/15 03:29:15;;;;;;;;;;;;;;;;;;2090135;28;20037;-85
2024/01/15 03:30:36;;;;;;;;;;;;;;;;;;2089002;28;19920;-86
2024/01/15 03:31:56;;;;;;;;;;;;;;;;;;2085114;28;19924;-84
2024/01/15 03:33:20;;;;;;;;;;;;;;;;;;2090380;28;19916;-86
2024/01/15 03:34:40;;;;;;;;;;;;;;;;;;2092304;28;19920;-81
2024/01/15 03:36:01;;;;;;;;;;;;;;;;;;2092778;28;20400;-81
2024/01/15 03:37:22;;;;;;;;;;;;;;;;;;2101276;28;19920;-81
2024/01/15 03:38:42;;;;;;;;;;;;;;;;;;2104227;28;19920;-83
2024/01/15 03:40:06;;;;;;;;;;;;;;;;;;2095395;28;19967;-83
2024/01/15 03:41:27;;;;;;;;;;;;;;;;;;2099454;28;20392;-84
2024/01/15 03:42:48;;;;;;;;;;;;;;;;;;2094287;28;19912;-86
2024/01/15 03:44:08;;;;;;;;;;;;;;;;;;2100862;28;20449;-84
2024/01/15 03:45:30;;;;;;;;;;;;;;;;;;2103485;28;20579;-85
2024/01/15 03:46:54;;;;;;;;;;;;;;;;;;2091939;28;20338;-86
2024/01/15 03:48:18;;;;;;;;;;;;;;;;;;2099685;28;20003;-86
2024/01/15 03:49:38;;;;;;;;;;;;;;;;;;2103587;28;19920;-83
2024/01/15 03:51:01;;;;;;;;;;;;;;;;;;2091190;28;19921;-86
2024/01/15 03:52:21;;;;;;;;;;;;;;;;;;2090329;28;19912;-85
2024/01/15 03:53:42;;;;;;;;;;;;;;;;;;2100470;28;19973;-81
2024/01/15 03:55:03;;;;;;;;;;;;;;;;;;2094072;28;19912;-81
2024/01/15 03:56:24;;;;;;;;;;;;;;;;;;2089657;28;19917;-83
2024/01/15 03:57:44;;;;;;;;;;;;;;;;;;2090452;28;20014;-83
2024/01/15 03:59:05;;;;;;;;;;;;;;;;;;2097828;28;19916;-83
2024/01/15 04:00:26;;;;;;;;;;;;;;;;;;2099835;28;19916;-83
2024/01/15 04:01:49;;;;;;;;;;;;;;;;;;2093942;28;19924;-84
2024/01/15 04:03:10;;;;;;;;;;;;;;;;;;2099642;28;20032;-80
2024/01/15 04:04:30;;;;;;;;;;;;;;;;;;2095292;28;19913;-86
2024/01/15 04:05:51;;;;;;;;;;;;;;;;;;2098063;28;19923;-81
2024/01/15 04:07:13;;;;;;;;;;;;;;;;;;2107193;28;19964;-81
2024/01/15 04:08:34;;;;;;;;;;;;;;;;;;2096999;28;19912;-84
2024/01/15 04:09:55;;;;;;;;;;;;;;;;;;2102041;28;19920;-81
2024/01/15 04:11:15;;;;;;;;;;;;;;;;;;2093726;28;19912;-81
2024/01/15 04:12:36;;;;;;;;;;;;;;;;;;2100614;28;19919;-81
2024/01/15 04:13:57;;;;;;;;;;;;;;;;;;2103533;28;20329;-85
2024/01/15 04:15:18;;;;;;;;;;;;;;;;;;2098486;28;19908;-86
2024/01/15 04:16:38;;;;;;;;;;;;;;;;;;2090826;28;19916;-83
2024/01/15 04:18:00;;;;;;;;;;;;;;;;;;2096758;28;19915;-80
2024/01/15 04:19:21;;;;;;;;;;;;;;;;;;2090519;28;19979;-80
2024/01/15 04:20:45;;;;;;;;;;;;;;;;;;2091038;28;19920;-81
2024/01/15 04:22:08;;;;;;;;;;;;;;;;;;2085650;28;20289;-80
2024/01/15 04:23:31;;;;;;;;;;;;;;;;;;2096124;28;19915;-80
2024/01/15 04:24:52;;;;;;;;;;;;;;;;;;2091055;28;19893;-83
2024/01/15 04:26:13;;;;;;;;;;;;;;;;;;2096109;28;19908;-84
2024/01/15 04:27:33;;;;;;;;;;;;;;;;;;2095679;28;19909;-81
2024/01/15 04:28:54;;;;;;;;;;;;;;;;;;2098671;28;19913;-81
2024/01/15 04:30:15;;;;;;;;;;;;;;;;;;2095824;28;19908;-81
2024/01/15 04:31:39;;;;;;;;;;;;;;;;;;2096438;28;19985;-81
2024/01/15 04:32:59;;;;;;;;;;;;;;;;;;2094034;28;20384;-86
2024/01/15 04:34:20;;;;;;;;;;;;;;;;;;2089832;28;19921;-85
2024/01/15 04:35:41;;;;;;;;;;;;;;;;;;2097391;28;19916;-83
2024/01/15 04:37:01;;;;;;;;;;;;;;;;;;2094143;28;20063;-79
2024/01/15 04:38:22;;;;;;;;;;;;;;;;;;2095269;28;19916;-81
2024/01/15 04:39:43;;;;;;;;;;;;;;;;;;2087618;28;19909;-87
2024/01/15 04:41:04;;;;;;;;;;;;;;;;;;2090967;28;19913;-81
2024/01/15 04:42:24;;;;;;;;;;;;;;;;;;2096122;28;20376;-85
2024/01/15 04:43:45;;;;;;;;;;;;;;;;;;2094650;28;19919;-84
2024/01/15 04:45:06;;;;;;;;;;;;;;;;;;2091342;28;19920;-86
2024/01/15 04:46:26;;;;;;;;;;;;;;;;;;2088530;28;19917;-81
2024/01/15 04:47:47;;;;;;;;;;;;;;;;;;2087104;28;19921;-81
2024/01/15 04:49:08;;;;;;;;;;;;;;;;;;2095098;28;19913;-81
2024/01/15 04:50:29;;;;;;;;;;;;;;;;;;2089580;28;20347;-86
2024/01/15 04:51:49;;;;;;;;;;;;;;;;;;2087745;28;19925;-85
2024/01/15 04:53:10;;;;;;;;;;;;;;;;;;2093123;28;19913;-81
2024/01/15 04:54:31;;;;;;;;;;;;;;;;;;2096225;28;19985;-80
2024/01/15 04:55:52;;;;;;;;;;;;;;;;;;2090642;28;20361;-81
2024/01/15 04:57:13;;;;;;;;;;;;;;;;;;2087102;28;19913;-83
2024/01/15 04:58:34;;;;;;;;;;;;;;;;;;2093682;28;19912;-84
2024/01/15 04:59:54;;;;;;;;;;;;;;;;;;2090898;28;19912;-83
2024/01/15 05:01:15;;;;;;;;;;;;;;;;;;2088024;28;20015;-82
2024/01/15 05:02:36;;;;;;;;;;;;;;;;;;2096082;28;20303;-85
2024/01/15 05:03:57;;;;;;;;;;;;;;;;;;2083260;28;19913;-84
2024/01/15 05:05:18;;;;;;;;;;;;;;;;;;2088350;28;20628;-83
2024/01/15 05:06:38;;;;;;;;;;;;;;;;;;2088259;28;19943;-84
2024/01/15 05:08:00;;;;;;;;;;;;;;;;;;2098939;28;20372;-80
2024/01/15 05:09:21;;;;;;;;;;;;;;;;;;2090905;28;19965;-81
2024/01/15 05:10:41;;;;;;;;;;;;;;;;;;2086033;28;19917;-82
2024/01/15 05:12:03;;;;;;;;;;;;;;;;;;2092455;28;20430;-81
2024/01/15 05:13:31;;;;;;;;;;;;;;;;;;2099583;28;19966;-86
2024/01/15 05:14:51;;;;;;;;;;;;;;;;;;2092692;28;20383;-82
2024/01/15 05:16:15;;;;;;;;;;;;;;;;;;2087630;28;19913;-79
2024/01/15 05:17:36;;;;;;;;;;;;;;;;;;2088844;28;20296;-84
2024/01/15 05:18:57;;;;;;;;;;;;;;;;;;2090432;28;19913;-83
2024/01/15 05:20:17;;;;;;;;;;;;;;;;;;2087688;28;19920;-78
2024/01/15 05:21:41;;;;;;;;;;;;;;;;;;2086959;28;19963;-84
2024/01/15 05:23:01;;;;;;;;;;;;;;;;;;2088584;28;19916;-86
2024/01/15 05:24:22;;;;;;;;;;;;;;;;;;2088065;28;19916;-84
2024/01/15 05:25:46;;;;;;;;;;;;;;;;;;2088419;28;19920;-83
2024/01/15 05:27:07;;;;;;;;;;;;;;;;;;2087279;28;20461;-82
2024/01/15 05:28:27;;;;;;;;;;;;;;;;;;2089823;28;19958;-84
2024/01/15 05:29:48;;;;;;;;;;;;;;;;;;2086482;28;19991;-81
2024/01/15 05:31:11;;;;;;;;;;;;;;;;;;2096316;28;20380;-78
2024/01/15 05:32:34;;;;;;;;;;;;;;;;;;2091199;28;19920;-84
2024/01/15 05:33:55;;;;;;;;;;;;;;;;;;2090549;28;20312;-83
2024/01/15 05:35:16;;;;;;;;;;;;;;;;;;2106554;28;20444;-83
2024/01/15 05:36:36;;;;;;;;;;;;;;;;;;2099471;28;19916;-80
2024/01/15 05:38:00;;;;;;;;;;;;;;;;;;2100035;28;20457;-84
2024/01/15 05:39:23;;;;;;;;;;;;;;;;;;2105887;28;20422;-83
2024/01/15 05:40:43;;;;;;;;;;;;;;;;;;2107822;28;20420;-83
2024/01/15 05:42:04;;;;;;;;;;;;;;;;;;2095473;28;19916;-83
2024/01/15 05:43:25;;;;;;;;;;;;;;;;;;2096145;28;20364;-83
2024/01/15 05:44:48;;;;;;;;;;;;;;;;;;2094073;28;19912;-83
2024/01/15 05:46:08;;;;;;;;;;;;;;;;;;2100759;28;19923;-83
2024/01/15 05:47:29;;;;;;;;;;;;;;;;;;2099338;28;20327;-82
2024/01/15 05:48:56;;;;;;;;;;;;;;;;;;2096332;28;19912;-84
2024/01/15 05:50:20;;;;;;;;;;;;;;;;;;2101954;28;19917;-79
2024/01/15 05:51:41;;;;;;;;;;;;;;;;;;2105478;28;20324;-84
2024/01/15 05:53:02;;;;;;;;;;;;;;;;;;2100964;28;19912;-80
2024/01/15 05:54:23;;;;;;;;;;;;;;;;;;2093998;28;19916;-80
2024/01/15 05:55:44;;;;;;;;;;;;;;;;;;2105660;28;19912;-86
2024/01/15 05:57:20;;;;;;;;;;;;;;;;;;2097998;28;19920;-86
2024/01/15 05:58:43;;;;;;;;;;;;;;;;;;2098015;28;19912;-85
2024/01/15 06:00:04;;;;;;;;;;;;;;;;;;2098634;28;19942;-85
2024/01/15 06:01:26;;;;;;;;;;;;;;;;;;2105964;28;20402;-85
2024/01/15 06:02:47;;;;;;;;;;;;;;;;;;2097221;28;19928;-85
2024/01/15 06:04:08;;;;;;;;;;;;;;;;;;2095241;28;19913;-84
2024/01/15 06:05:29;;;;;;;;;;;;;;;;;;2101103;28;19912;-84
2024/01/15 06:06:52;;;;;;;;;;;;;;;;;;2103358;28;19908;-84
2024/01/15 06:08:16;;;;;;;;;;;;;;;;;;2096286;28;19966;-80
2024/01/15 06:09:38;;;;;;;;;;;;;;;;;;2109404;28;20267;-79
2024/01/15 06:11:01;;;;;;;;;;;;;;;;;;2099630;28;20338;-79
2024/01/15 06:12:24;;;;;;;;;;;;;;;;;;2084819;28;20349;-78
2024/01/15 06:13:47;;;;;;;;;;;;;;;;;;2091840;28;20324;-83
2024/01/15 06:15:18;;;;;;;;;;;;;;;;;;2100670;28;20316;-83
2024/01/15 06:16:39;;;;;;;;;;;;;;;;;;2099060;28;19920;-86
2024/01/15 06:18:10;;;;;;;;;;;;;;;;;;;;;
2024/01/15 06:23:10;;;;;;;;;;;;;;;;;;;;;
2024/01/15 06:24:43;;;;;;;;;;;;;;;;;;2093705;28;19920;-80
2024/01/15 06:26:35;;;;;;;;;;;;;;;;;;;;;
2024/01/15 06:27:45;;;;;;;;;;;;;;;;;;2090427;28;19920;-79
2024/01/15 06:29:15;;;;;;;;;;;;;;;;;;2084503;28;19913;-78
2024/01/15 06:30:38;;;;;;;;;;;;;;;;;;2091728;28;19963;-78
2024/01/15 06:32:03;;;;;;;;;;;;;;;;;;2081702;28;19925;-79
2024/01/15 06:36:58;;;;;;;;;;;;;;;;;;2077692;28;19897;-77
2024/01/15 06:40:16;;;;;;;;;;;;;;;;;;2071752;28;19917;-83
2024/01/15 06:43:55;;;;;;;;;;;;;;;;;;2087322;28;19917;-81
2024/01/15 06:45:19;;;;;;;;;;;;;;;;;;2075748;28;19970;-83
2024/01/15 06:46:45;;;;;;;;;;;;;;;;;;2058141;28;19917;-83
2024/01/15 06:48:16;;;;;;;;;;;;;;;;;;;;;
2024/01/15 06:49:57;;;;;;;;;;;;;;;;;;;;;
2024/01/15 06:53:17;;;;;;;;;;;;;;;;;;2028500;29;19941;-80
2024/01/15 06:55:01;;;;;;;;;;;;;;;;;;2034798;29;19983;-78
2024/01/15 06:56:37;;;;;;;;;;;;;;;;;;;;;
2024/01/15 06:58:08;;;;;;;;;;;;;;;;;;;;;
2024/01/15 07:01:59;;;;;;;;;;;;;;;;;;2012105;29;19916;-79
2024/01/15 07:21:46;;;;;;;;;;;;;;;;;;;;;
2024/01/15 07:55:58;;;;;;;;;;;;;;;;;;;;;
2024/01/15 07:57:20;;;;;;;;;;;;;;;;;;2024753;29;20328;-83
2024/01/15 08:08:25;;;;;;;;;;;;;;;;;;2107117;28;19928;-83
2024/01/15 08:09:47;;;;;;;;;;;;;;;;;;2095404;28;19913;-83
2024/01/15 08:11:08;;;;;;;;;;;;;;;;;;2097114;28;19908;-85
2024/01/15 08:12:29;;;;;;;;;;;;;;;;;;2094600;28;19913;-85
2024/01/15 08:13:49;;;;;;;;;;;;;;;;;;2105870;28;19916;-84
2024/01/15 08:15:10;;;;;;;;;;;;;;;;;;2105997;28;19928;-84
2024/01/15 08:16:31;;;;;;;;;;;;;;;;;;2103714;28;19916;-86
2024/01/15 08:17:51;;;;;;;;;;;;;;;;;;2097900;28;19924;-85
2024/01/15 08:19:14;;;;;;;;;;;;;;;;;;2099982;28;19908;-85
2024/01/15 08:20:34;;;;;;;;;;;;;;;;;;2095561;28;19917;-84
2024/01/15 08:21:55;;;;;;;;;;;;;;;;;;2093169;28;20376;-85
2024/01/15 08:23:16;;;;;;;;;;;;;;;;;;2096090;28;19920;-88
2024/01/15 08:24:37;;;;;;;;;;;;;;;;;;2096102;28;19920;-85
2024/01/15 08:25:58;;;;;;;;;;;;;;;;;;2093109;28;19920;-85
2024/01/15 08:27:19;;;;;;;;;;;;;;;;;;2094476;28;19908;-86
2024/01/15 08:28:40;;;;;;;;;;;;;;;;;;2094639;28;19912;-86
2024/01/15 08:30:01;;;;;;;;;;;;;;;;;;2097453;28;19931;-88
2024/01/15 08:31:22;;;;;;;;;;;;;;;;;;2096309;28;19909;-88
2024/01/15 08:32:42;;;;;;;;;;;;;;;;;;2104749;28;19920;-87
2024/01/15 08:34:03;;;;;;;;;;;;;;;;;;2109343;28;19908;-83
2024/01/15 08:35:25;;;;;;;;;;;;;;;;;;2099835;28;20384;-91
2024/01/15 08:36:45;;;;;;;;;;;;;;;;;;2105463;28;19916;-90
2024/01/15 08:38:06;;;;;;;;;;;;;;;;;;2105949;28;19915;-89
2024/01/15 08:39:27;;;;;;;;;;;;;;;;;;2099673;28;19907;-89
2024/01/15 08:40:48;;;;;;;;;;;;;;;;;;2095942;28;20307;-90
2024/01/15 08:42:08;;;;;;;;;;;;;;;;;;2097843;28;19914;-89
2024/01/15 08:43:30;;;;;;;;;;;;;;;;;;2098707;28;19909;-89
2024/01/15 08:44:51;;;;;;;;;;;;;;;;;;2100014;28;19943;-88
2024/01/15 08:46:12;;;;;;;;;;;;;;;;;;2090900;28;19908;-88
2024/01/15 08:47:33;;;;;;;;;;;;;;;;;;2098905;28;19915;-91
2024/01/15 08:48:53;;;;;;;;;;;;;;;;;;2091244;28;19915;-90
2024/01/15 08:50:14;;;;;;;;;;;;;;;;;;2093844;28;20377;-91
2024/01/15 08:51:35;;;;;;;;;;;;;;;;;;2097278;28;20318;-90
2024/01/15 08:52:56;;;;;;;;;;;;;;;;;;2103710;28;19927;-91
2024/01/15 08:54:18;;;;;;;;;;;;;;;;;;2096717;28;20315;-91
2024/01/15 08:55:38;;;;;;;;;;;;;;;;;;2105473;28;19931;-88
2024/01/15 08:56:59;;;;;;;;;;;;;;;;;;2109963;28;19919;-87
2024/01/15 08:58:20;;;;;;;;;;;;;;;;;;2097008;28;20373;-92
2024/01/15 08:59:41;;;;;;;;;;;;;;;;;;2090103;28;19909;-90
2024/01/15 09:01:02;;;;;;;;;;;;;;;;;;2090830;28;20332;-88
2024/01/15 09:02:22;;;;;;;;;;;;;;;;;;2088454;28;19909;-88
2024/01/15 09:03:43;;;;;;;;;;;;;;;;;;2090712;28;19967;-86
2024/01/15 09:05:04;;;;;;;;;;;;;;;;;;2096194;28;19921;-86
2024/01/15 09:06:25;;;;;;;;;;;;;;;;;;2096141;28;20324;-85
2024/01/15 09:07:46;;;;;;;;;;;;;;;;;;2101964;28;19924;-84
2024/01/15 09:09:06;;;;;;;;;;;;;;;;;;2092861;28;19908;-85
2024/01/15 09:10:27;;;;;;;;;;;;;;;;;;2093330;28;19909;-84
2024/01/15 09:11:48;;;;;;;;;;;;;;;;;;2093353;28;20347;-83
2024/01/15 09:13:08;;;;;;;;;;;;;;;;;;2103619;28;19912;-83
2024/01/15 09:14:29;;;;;;;;;;;;;;;;;;2095898;28;19917;-84
2024/01/15 09:15:50;;;;;;;;;;;;;;;;;;2090316;28;19908;-86
2024/01/15 09:17:10;;;;;;;;;;;;;;;;;;2100908;28;19908;-83
2024/01/15 09:18:31;;;;;;;;;;;;;;;;;;2091783;28;19909;-84
2024/01/15 09:19:52;;;;;;;;;;;;;;;;;;2098818;28;20221;-84
2024/01/15 09:21:13;;;;;;;;;;;;;;;;;;2096628;28;19920;-82
2024/01/15 09:22:33;;;;;;;;;;;;;;;;;;2095558;28;19908;-84
2024/01/15 09:23:54;;;;;;;;;;;;;;;;;;2100196;28;20348;-85
2024/01/15 09:25:15;;;;;;;;;;;;;;;;;;2089306;28;19917;-84
2024/01/15 09:26:35;;;;;;;;;;;;;;;;;;2093697;28;20140;-84
2024/01/15 09:27:57;;;;;;;;;;;;;;;;;;2098701;28;19935;-85
2024/01/15 09:29:18;;;;;;;;;;;;;;;;;;2095863;28;19928;-84
2024/01/15 09:30:38;;;;;;;;;;;;;;;;;;2101489;28;20287;-84
2024/01/15 09:31:59;;;;;;;;;;;;;;;;;;2102209;28;19934;-86
2024/01/15 09:33:20;;;;;;;;;;;;;;;;;;2103401;28;19908;-85
2024/01/15 09:34:41;;;;;;;;;;;;;;;;;;2096475;28;20269;-86
2024/01/15 09:36:03;;;;;;;;;;;;;;;;;;2098733;28;19916;-87
2024/01/15 09:37:25;;;;;;;;;;;;;;;;;;2105427;28;19908;-86
2024/01/15 09:38:45;;;;;;;;;;;;;;;;;;2103518;28;20371;-85
2024/01/15 09:40:06;;;;;;;;;;;;;;;;;;2092081;28;19912;-87
2024/01/15 09:41:27;;;;;;;;;;;;;;;;;;2098896;28;19909;-87
2024/01/15 09:42:48;;;;;;;;;;;;;;;;;;2101756;28;19916;-85
2024/01/15 09:44:08;;;;;;;;;;;;;;;;;;2102718;28;19912;-88
2024/01/15 09:45:29;;;;;;;;;;;;;;;;;;2093736;28;19917;-86
2024/01/15 09:46:50;;;;;;;;;;;;;;;;;;2104653;28;19908;-90
2024/01/15 09:48:11;;;;;;;;;;;;;;;;;;2098119;28;19908;-84
2024/01/15 09:49:31;;;;;;;;;;;;;;;;;;2098775;28;19909;-89
2024/01/15 09:50:52;;;;;;;;;;;;;;;;;;2089743;28;19920;-88
2024/01/15 09:52:13;;;;;;;;;;;;;;;;;;2106599;28;19915;-89
2024/01/15 09:53:33;;;;;;;;;;;;;;;;;;2097585;28;19916;-87
2024/01/15 09:54:54;;;;;;;;;;;;;;;;;;2097070;28;19916;-87
2024/01/15 09:56:16;;;;;;;;;;;;;;;;;;2104131;28;19915;-88
2024/01/15 09:57:36;;;;;;;;;;;;;;;;;;2106909;28;19943;-87
2024/01/15 09:58:57;;;;;;;;;;;;;;;;;;2105611;28;19915;-86
2024/01/15 10:00:18;;;;;;;;;;;;;;;;;;2099365;28;19916;-86
2024/01/15 10:01:38;;;;;;;;;;;;;;;;;;2101644;28;19916;-85
2024/01/15 10:03:00;;;;;;;;;;;;;;;;;;2095123;28;19909;-87
2024/01/15 10:04:20;;;;;;;;;;;;;;;;;;2095503;28;19909;-84
2024/01/15 10:05:41;;;;;;;;;;;;;;;;;;2097014;28;19917;-85
2024/01/15 10:07:02;;;;;;;;;;;;;;;;;;2093768;28;20368;-85
2024/01/15 10:08:22;;;;;;;;;;;;;;;;;;2095851;28;19921;-86
2024/01/15 10:09:43;;;;;;;;;;;;;;;;;;2096349;28;19908;-85
2024/01/15 10:11:04;;;;;;;;;;;;;;;;;;2099434;28;19915;-86
2024/01/15 10:12:27;;;;;;;;;;;;;;;;;;2096773;28;19908;-86
2024/01/15 10:13:50;;;;;;;;;;;;;;;;;;2095704;28;19909;-85
2024/01/15 10:15:11;;;;;;;;;;;;;;;;;;2102767;28;19916;-87
2024/01/15 10:16:32;;;;;;;;;;;;;;;;;;2108395;28;20401;-83
2024/01/15 10:17:53;;;;;;;;;;;;;;;;;;2096563;28;19912;-85
2024/01/15 10:19:13;;;;;;;;;;;;;;;;;;2094638;28;19916;-84
2024/01/15 10:20:34;;;;;;;;;;;;;;;;;;2090227;28;20376;-85
2024/01/15 10:21:55;;;;;;;;;;;;;;;;;;2090745;28;19939;-84
2024/01/15 10:23:15;;;;;;;;;;;;;;;;;;2102784;28;20280;-83
2024/01/15 10:24:36;;;;;;;;;;;;;;;;;;2096680;28;19912;-83
2024/01/15 10:25:57;;;;;;;;;;;;;;;;;;2097020;28;20187;-82
2024/01/15 10:27:18;;;;;;;;;;;;;;;;;;2095183;28;19908;-83
2024/01/15 10:28:38;;;;;;;;;;;;;;;;;;2093086;28;20348;-83
2024/01/15 10:30:02;;;;;;;;;;;;;;;;;;2086215;28;20690;-82
2024/01/15 10:31:23;;;;;;;;;;;;;;;;;;2098128;28;19908;-81
2024/01/15 10:32:43;;;;;;;;;;;;;;;;;;2103761;28;20026;-82
2024/01/15 10:34:04;;;;;;;;;;;;;;;;;;2097866;28;20466;-82
2024/01/15 10:35:25;;;;;;;;;;;;;;;;;;2088074;28;19963;-82
2024/01/15 10:36:47;;;;;;;;;;;;;;;;;;2095970;28;19909;-82
2024/01/15 10:38:08;;;;;;;;;;;;;;;;;;2105039;28;19908;-83
2024/01/15 10:39:29;;;;;;;;;;;;;;;;;;2097464;28;19915;-83
2024/01/15 10:40:49;;;;;;;;;;;;;;;;;;2094813;28;20364;-87
2024/01/15 10:42:10;;;;;;;;;;;;;;;;;;2098637;28;19909;-87
2024/01/15 10:43:31;;;;;;;;;;;;;;;;;;2096269;28;19951;-87
2024/01/15 10:44:51;;;;;;;;;;;;;;;;;;2097090;28;19931;-90
2024/01/15 10:46:12;;;;;;;;;;;;;;;;;;2098693;28;20312;-88
2024/01/15 10:47:33;;;;;;;;;;;;;;;;;;2103687;28;19908;-88
2024/01/15 10:48:53;;;;;;;;;;;;;;;;;;2098775;28;19915;-87
2024/01/15 10:50:14;;;;;;;;;;;;;;;;;;2094216;28;19916;-89
2024/01/15 10:51:35;;;;;;;;;;;;;;;;;;2093757;28;19901;-87
2024/01/15 10:52:55;;;;;;;;;;;;;;;;;;2100295;28;19917;-89
2024/01/15 10:54:16;;;;;;;;;;;;;;;;;;2103459;28;19919;-88
2024/01/15 10:55:37;;;;;;;;;;;;;;;;;;2099582;28;19921;-88
2024/01/15 10:56:58;;;;;;;;;;;;;;;;;;2095368;28;19916;-88
2024/01/15 10:58:18;;;;;;;;;;;;;;;;;;2090560;28;19913;-86
2024/01/15 10:59:39;;;;;;;;;;;;;;;;;;2096455;28;19975;-88
2024/01/15 11:01:01;;;;;;;;;;;;;;;;;;2091413;28;19908;-87
2024/01/15 11:02:22;;;;;;;;;;;;;;;;;;2092013;28;19909;-87
2024/01/15 11:03:42;;;;;;;;;;;;;;;;;;2093063;28;19908;-86
2024/01/15 11:05:03;;;;;;;;;;;;;;;;;;2090253;28;19920;-86
2024/01/15 11:06:24;;;;;;;;;;;;;;;;;;2087993;28;19908;-86
2024/01/15 11:07:44;;;;;;;;;;;;;;;;;;2090557;28;19909;-85
2024/01/15 11:09:06;;;;;;;;;;;;;;;;;;2098222;28;19912;-84
2024/01/15 11:10:28;;;;;;;;;;;;;;;;;;2097131;28;20296;-84
2024/01/15 11:11:49;;;;;;;;;;;;;;;;;;2095919;28;19908;-83
2024/01/15 11:13:10;;;;;;;;;;;;;;;;;;2088977;28;19917;-83
2024/01/15 11:14:31;;;;;;;;;;;;;;;;;;2092621;28;19909;-82
2024/01/15 11:15:52;;;;;;;;;;;;;;;;;;2090668;28;19916;-83
2024/01/15 11:17:13;;;;;;;;;;;;;;;;;;2094275;28;19912;-83
2024/01/15 11:18:34;;;;;;;;;;;;;;;;;;2089696;28;19916;-82
2024/01/15 11:19:55;;;;;;;;;;;;;;;;;;2095188;28;20368;-81
2024/01/15 11:21:16;;;;;;;;;;;;;;;;;;2089862;28;19913;-81
2024/01/15 11:22:36;;;;;;;;;;;;;;;;;;2096525;28;19913;-80
2024/01/15 11:23:57;;;;;;;;;;;;;;;;;;2094647;28;20448;-81
2024/01/15 11:25:18;;;;;;;;;;;;;;;;;;2094923;28;19975;-81
2024/01/15 11:26:38;;;;;;;;;;;;;;;;;;2098141;28;19908;-81
2024/01/15 11:27:59;;;;;;;;;;;;;;;;;;2105770;28;19908;-80
2024/01/15 11:29:20;;;;;;;;;;;;;;;;;;2096263;28;19916;-81
2024/01/15 11:30:40;;;;;;;;;;;;;;;;;;2093814;28;20323;-80
2024/01/15 11:32:01;;;;;;;;;;;;;;;;;;2094605;28;19908;-81
2024/01/15 11:33:22;;;;;;;;;;;;;;;;;;2099208;28;19912;-81
2024/01/15 11:34:43;;;;;;;;;;;;;;;;;;2090208;28;19913;-81
2024/01/15 11:36:03;;;;;;;;;;;;;;;;;;2087428;28;19917;-80
2024/01/15 11:37:24;;;;;;;;;;;;;;;;;;2088048;28;19909;-81
2024/01/15 11:38:45;;;;;;;;;;;;;;;;;;2087288;28;19913;-81
2024/01/15 11:40:11;;;;;;;;;;;;;;;;;;2097096;28;19913;-81
2024/01/15 11:41:31;;;;;;;;;;;;;;;;;;2090574;28;19947;-82
2024/01/15 11:42:52;;;;;;;;;;;;;;;;;;2095187;28;20288;-82
2024/01/15 11:44:13;;;;;;;;;;;;;;;;;;2104240;28;19931;-82
2024/01/15 11:45:34;;;;;;;;;;;;;;;;;;2097130;28;20478;-82
2024/01/15 11:46:54;;;;;;;;;;;;;;;;;;2097901;28;20383;-82
2024/01/15 11:48:15;;;;;;;;;;;;;;;;;;2097610;28;19943;-82
2024/01/15 11:49:36;;;;;;;;;;;;;;;;;;2097691;28;19909;-83